Gilgit Weather



Gilgit's Current Weather

Temprature 10.74o broken clouds

broken clouds

Rain: 0 %

Min Temprature10.74o
Max Temprature10.74o
Humidity24
Wind Speed0.8 m/h
Sun Rise05:37:31
Sun Set18:30:38
Current Time: 09-Apr-2020 01:41:48
Lat/Lon: 35.92, 74.31




Gilgit's Geo Location



Gilgit's Weather Forecast

Time Overall Temp Min Temp Max Temp Humidity Wind Speed Rain
09-Apr-2020 (Thu)
02:00:00 broken clouds 10.740 10.740 10.740 24 0.8 m/h 0 %
05:00:00 broken clouds 10.390 10.390 10.390 24 0.74 m/h 0 %
08:00:00 broken clouds 12.240 12.240 12.240 22 1.21 m/h 0 %
11:00:00 overcast clouds 15.190 15.190 15.190 18 2.55 m/h 0 %
14:00:00 overcast clouds 16.730 16.730 16.730 17 3.13 m/h 0 %
17:00:00 overcast clouds 15.080 15.080 15.080 20 0.93 m/h 0 %
20:00:00 light rain 12.760 12.760 12.760 28 1.3 m/h 11 %
23:00:00 moderate rain 11.060 11.060 11.060 34 1.87 m/h 368 %
10-Apr-2020 (Fri)
02:00:00 broken clouds 10.430 10.430 10.430 33 0.94 m/h 0 %
05:00:00 light rain 10.090 10.090 10.090 32 1.51 m/h 86 %
08:00:00 overcast clouds 11.020 11.020 11.020 30 1.62 m/h 0 %
11:00:00 broken clouds 12.870 12.870 12.870 26 1.03 m/h 0 %
14:00:00 broken clouds 15.040 15.040 15.040 20 1.01 m/h 0 %
17:00:00 scattered clouds 15.930 15.930 15.930 18 1.11 m/h 0 %
20:00:00 clear sky 13.400 13.400 13.400 21 1.15 m/h 0 %
23:00:00 few clouds 12.350 12.350 12.350 22 0.67 m/h 0 %
11-Apr-2020 (Sat)
02:00:00 clear sky 11.180 11.180 11.180 23 0.87 m/h 0 %
05:00:00 few clouds 10.420 10.420 10.420 24 0.96 m/h 0 %
08:00:00 overcast clouds 12.190 12.190 12.190 21 1.03 m/h 0 %
11:00:00 broken clouds 15.050 15.050 15.050 18 0.98 m/h 0 %
14:00:00 broken clouds 17.510 17.510 17.510 16 0.72 m/h 0 %
17:00:00 broken clouds 17.790 17.790 17.790 16 1.26 m/h 0 %
20:00:00 few clouds 15.140 15.140 15.140 19 1.03 m/h 0 %
23:00:00 scattered clouds 13.750 13.750 13.750 20 1.04 m/h 0 %
12-Apr-2020 (Sun)
02:00:00 overcast clouds 12.850 12.850 12.850 21 1.19 m/h 0 %
05:00:00 overcast clouds 12.140 12.140 12.140 21 1.02 m/h 0 %
08:00:00 broken clouds 14.190 14.190 14.190 19 1.12 m/h 0 %
11:00:00 broken clouds 17.310 17.310 17.310 16 1.2 m/h 0 %
14:00:00 broken clouds 19.900 19.900 19.900 14 1.07 m/h 0 %
17:00:00 overcast clouds 19.970 19.970 19.970 14 1.44 m/h 0 %
20:00:00 scattered clouds 17.190 17.190 17.190 18 0.82 m/h 0 %
23:00:00 broken clouds 15.790 15.790 15.790 18 0.69 m/h 0 %
13-Apr-2020 (Mon)
02:00:00 broken clouds 14.500 14.500 14.500 19 0.61 m/h 0 %
05:00:00 broken clouds 13.310 13.310 13.310 20 0.78 m/h 0 %
08:00:00 broken clouds 16.060 16.060 16.060 17 0.84 m/h 0 %
11:00:00 overcast clouds 19.080 19.080 19.080 15 0.61 m/h 0 %
14:00:00 overcast clouds 20.980 20.980 20.980 13 0.55 m/h 0 %
17:00:00 overcast clouds 21.030 21.030 21.030 13 0.71 m/h 0 %
20:00:00 overcast clouds 19.110 19.110 19.110 17 0.68 m/h 0 %
23:00:00 overcast clouds 17.870 17.870 17.870 20 0.34 m/h 0 %

Famous Cities (61)